Archival Weather

Snohomish County (Paine Fld)

Everett, Washington (KPAE)

Report from: Monday, November 20, 2023 7:53 PM PST
Current time: Friday, February 23, 2024 12:00 PM PST

Current weather – Weather history – Daily summaries
Weather forecast

Temperature7.8°C (46.0°F)
Wind chill6.6°C (43.8°F)
Dew point1.1°C (34.0°F)
Winds 4 kts (2.1 m/s, 4.6 mph) East (100°)
Visibility10 mi. (16.1 km)
Clouds Sky clear
Altimeter30.37 in.Hg (1028 mB)
Relative humidity63 %
Density altitude-1,293 ft. (-394 m)
Sea-level pressure102.9 kPa (1029 mB, 30.38 in.Hg)
Remarks Automated weather observing station with precipitation discriminator
Flight conditions Visual Meteorological Conditions
Raw dataKPAE 210353Z 10004KT 10SM CLR 08/01 A3037 RMK AO2 SLP289 T00780011
An error has occurred. This application may no longer respond until reloaded. Reload 🗙